MDT,Max TemperatureF,Mean TemperatureF,Min TemperatureF,Max Dew PointF,MeanDew PointF,Min DewpointF,Max Humidity, Mean Humidity, Min Humidity, Max Sea Level PressureIn, Mean Sea Level PressureIn, Min Sea Level PressureIn, Max VisibilityMiles, Mean VisibilityMiles, Min VisibilityMiles, Max Wind SpeedMPH, Mean Wind SpeedMPH, Max Gust SpeedMPH,PrecipitationIn, CloudCover, Events, WindDirDegrees
2013-4-1,68,56,44,41,26,9,76,44,11,29.93,29.82,29.69,10,10,10,25,9,32,0.04,3,,164
2013-4-2,59,48,36,35,29,25,85,58,30,29.98,29.87,29.79,10,10,10,28,10,31,0.00,3,Thunderstorm,124
2013-4-3,62,48,34,35,29,21,89,56,22,30.20,30.08,29.98,10,10,10,14,4,16,T,2,Rain,142
2013-4-4,70,53,35,26,21,13,59,35,11,30.16,30.05,29.95,10,10,10,14,6,17,0.00,0,,150
2013-4-5,69,57,44,32,25,20,48,33,18,29.93,29.84,29.70,10,10,10,37,8,48,T,4,Thunderstorm,234
2013-4-6,65,51,37,32,27,18,76,47,17,29.95,29.87,29.78,10,10,10,23,7,30,T,2,,206
2013-4-7,70,55,39,38,27,13,79,46,12,29.87,29.74,29.58,10,10,10,26,8,36,T,4,,149
2013-4-8,66,54,41,43,29,17,92,55,18,29.56,29.39,29.26,10,10,4,31,12,40,0.12,3,Rain,158
2013-4-9,41,31,20,34,26,18,100,85,70,30.08,29.75,29.36,10,3,0,21,8,24,0.16,7,Fog-Snow,329
2013-4-10,39,28,17,26,18,12,91,73,54,30.23,30.11,30.04,10,7,1,10,4,14,T,5,Snow,38
2013-4-11,51,41,30,35,29,24,85,66,46,30.06,29.94,29.84,10,10,10,12,2,12,0.01,5,,137
2013-4-12,60,47,33,33,29,20,89,56,23,29.91,29.86,29.81,10,10,10,18,5,23,0.00,2,,153
2013-4-13,66,50,33,40,23,13,70,42,14,29.83,29.62,29.34,10,10,8,38,12,54,0.02,2,Rain,194
2013-4-14,53,46,38,42,30,17,96,60,24,29.73,29.64,29.51,10,10,6,17,6,29,0.21,5,Rain,327
2013-4-15,57,45,33,36,33,27,96,67,38,29.75,29.58,29.37,10,10,6,26,10,35,0.11,5,Rain,298
2013-4-16,68,50,31,34,28,19,96,56,16,29.83,29.56,29.38,10,10,5,39,16,48,T,2,Rain,253
2013-4-17,32,29,25,29,25,13,100,75,50,30.14,29.87,29.67,10,4,0,25,9,32,0.15,8,Fog-Snow,339
2013-4-18,39,29,18,20,15,12,84,60,35,30.36,30.25,30.17,10,10,10,23,8,31,0.00,3,,260
2013-4-19,52,37,22,28,19,14,84,56,28,30.36,30.20,30.01,10,10,10,13,3,18,0.00,2,,112
2013-4-20,55,45,34,36,32,28,89,64,38,30.06,29.98,29.92,10,10,10,25,7,36,T,5,,185
2013-4-21,63,48,32,35,29,23,89,55,21,30.14,30.04,29.93,10,10,10,13,5,22,0.00,1,,146
2013-4-22,70,57,44,32,24,14,54,33,11,29.92,29.78,29.62,10,10,10,31,12,39,0.00,3,,317
2013-4-23,50,42,34,34,18,0,92,53,13,30.12,30.00,29.84,10,10,10,25,13,35,0.02,3,Rain,299
2013-4-24,57,44,31,22,14,7,54,35,15,30.18,30.11,30.05,10,10,10,13,4,15,0.00,0,,110
2013-4-25,69,51,32,24,20,14,69,41,12,30.08,29.95,29.80,10,10,10,18,7,22,0.00,0,,195
2013-4-26,69,53,36,25,18,5,59,34,8,30.15,30.06,29.94,10,10,10,14,7,20,0.00,1,,156
2013-4-27,72,54,36,24,17,9,49,29,9,30.21,30.11,30.01,10,10,10,17,7,21,0.00,0,,146
2013-4-28,76,58,39,27,21,13,50,30,9,30.03,29.93,29.80,10,10,10,14,6,17,0.00,0,,94
2013-4-29,79,61,43,28,23,16,53,31,9,29.83,29.72,29.58,10,10,10,14,7,25,0.00,0,,142
2013-4-30,81,65,49,34,21,12,40,24,8,29.62,29.53,29.45,10,10,8,36,15,44,0.00,0,,199